Jerramungup Jacup, Australia
Current Conditions -  °F | °C
As of 6:00 AM on Sunday 26 Oct 2014 (Local Time) from YABA Reporting Station
Overcast Overcast  
Wind Chill: 55°   Ceiling: 4700
Heat Index: 55°   Visibility: 6mi
Dew Point: 54°   Wind: 12mph
Humidity: 94%   Direction: 270°W
Pressure: 30.03"   Gusts: NA
Location:  33.72°S, 119.05°E
Report Text: YABA 252200Z AUTO 27010KT 9999 // SCT015 SCT024 OVC047 13/12 Q1017
Loading
Personal Weather Stations






























Interactive Weather Map
Tropical Storm Tracking
New forecast layout! Learn more

10-Day Weather Forecast

Advertisements
Track Severe Weather on mobile